Time;durP1;ratioP1;P1;durP2;ratioP2;P2;SDS_P1;SDS_P2;PMS_P1;PMS_P2;Temp;Humidity;BMP_temperature;BMP_pressure;BME280_temperature;BME280_humidity;BME280_pressure;Samples;Min_cycle;Max_cycle;Signal;HPM_P1;HPM_P2
2021/10/28 00:16:23;;;;;;;24.15;14.90;;;;;;;6.10;97.11;101024.16;20818241;28;20064;-69
2021/10/28 00:26:25;;;;;;;27.67;17.55;;;;;;;6.09;97.63;101017.22;20817841;28;20060;-70
2021/10/28 00:36:27;;;;;;;28.33;18.27;;;;;;;6.10;97.69;101001.63;20817087;28;20052;-70
2021/10/28 00:46:31;;;;;;;31.70;19.08;;;;;;;6.15;97.80;101012.97;20816856;28;20115;-69
2021/10/28 00:56:33;;;;;;;27.20;17.23;;;;;;;6.08;98.00;101018.06;20829676;28;20111;-70
2021/10/28 01:06:37;;;;;;;26.15;16.15;;;;;;;5.91;97.09;101013.53;20831620;28;20049;-69
2021/10/28 01:16:38;;;;;;;27.63;17.83;;;;;;;5.85;96.52;101009.97;20830494;28;20050;-70
2021/10/28 01:26:40;;;;;;;26.65;16.85;;;;;;;5.74;96.51;101002.00;20830294;28;20061;-70
2021/10/28 01:36:41;;;;;;;25.90;16.33;;;;;;;5.49;95.87;101005.09;20828841;28;20092;-70
2021/10/28 01:46:43;;;;;;;29.98;17.25;;;;;;;5.46;96.86;101002.44;20828479;28;20062;-70
2021/10/28 01:56:45;;;;;;;32.85;19.35;;;;;;;5.38;96.79;100990.25;20827893;28;20123;-70
2021/10/28 02:06:47;;;;;;;31.05;19.73;;;;;;;5.31;95.70;100988.38;20826249;28;20096;-70
2021/10/28 02:16:48;;;;;;;38.55;18.90;;;;;;;5.21;96.55;100976.13;20826064;28;20103;-70
2021/10/28 02:26:50;;;;;;;34.05;19.27;;;;;;;5.20;96.67;100984.75;20825597;28;20049;-70
2021/10/28 02:36:52;;;;;;;36.75;20.52;;;;;;;5.27;96.63;100976.25;20824452;28;20049;-70
2021/10/28 02:46:53;;;;;;;41.58;21.08;;;;;;;5.42;95.56;100973.00;20824052;28;20107;-70
2021/10/28 02:56:55;;;;;;;44.92;22.75;;;;;;;5.48;96.36;100972.19;20822583;28;20053;-70
2021/10/28 03:06:57;;;;;;;54.25;22.90;;;;;;;5.58;97.26;100961.09;20821472;28;20049;-70
2021/10/28 03:27:03;;;;;;;44.17;22.17;;;;;;;5.47;97.36;100954.88;20820603;28;20111;-70
2021/10/28 03:47:42;;;;;;;57.42;24.35;;;;;;;5.55;96.85;100958.44;20820568;28;20049;-70
2021/10/28 03:58:02;;;;;;;46.30;23.02;;;;;;;5.35;97.93;100958.16;20819009;28;20491;-70
2021/10/28 04:39:06;;;;;;;38.67;21.48;;;;;;;6.02;96.51;100953.88;20800382;28;20068;-70
2021/10/28 04:49:08;;;;;;;35.45;22.02;;;;;;;6.17;96.28;100959.25;20832918;28;20414;-70
2021/10/28 04:59:10;;;;;;;35.13;20.65;;;;;;;6.30;96.27;100951.59;20832327;28;20056;-70
2021/10/28 05:09:13;;;;;;;36.30;20.15;;;;;;;6.34;96.22;100941.22;20831703;28;20123;-70
2021/10/28 05:19:15;;;;;;;37.42;19.55;;;;;;;6.35;95.65;100948.16;20831404;28;20426;-70
2021/10/28 05:29:16;;;;;;;38.60;19.80;;;;;;;6.26;96.61;100940.28;20830734;28;20061;-70
2021/10/28 05:39:18;;;;;;;46.33;20.85;;;;;;;6.36;96.49;100949.91;20828687;28;20091;-70
2021/10/28 05:49:19;;;;;;;35.35;17.80;;;;;;;6.48;96.71;100949.19;20828831;28;20115;-70
2021/10/28 05:59:21;;;;;;;40.83;20.67;;;;;;;6.49;97.19;100945.72;20827299;28;20103;-70
2021/10/28 06:09:22;;;;;;;37.40;19.30;;;;;;;6.68;98.03;100939.81;20825691;28;20073;-70
2021/10/28 06:19:24;;;;;;;45.88;22.25;;;;;;;6.85;97.95;100932.16;20825057;28;20049;-71
2021/10/28 06:29:25;;;;;;;37.03;17.45;;;;;;;6.84;97.99;100933.00;20825515;28;20057;-71
2021/10/28 06:39:27;;;;;;;33.47;15.93;;;;;;;6.85;97.66;100947.78;20824466;28;20053;-72
2021/10/28 06:49:30;;;;;;;33.67;15.13;;;;;;;6.94;97.16;100949.56;20823239;28;20045;-70
2021/10/28 08:21:29;;;;;;;32.53;14.40;;;;;;;7.80;95.75;100958.78;20809363;28;20311;-70
2021/10/28 08:31:31;;;;;;;35.72;15.20;;;;;;;7.90;95.46;100944.91;20809877;28;20095;-71
2021/10/28 08:41:34;;;;;;;37.38;15.70;;;;;;;8.09;94.76;100939.78;20810649;28;20414;-70
2021/10/28 08:51:51;;;;;;;35.53;15.57;;;;;;;8.26;94.16;100935.47;20809087;28;20487;-70
2021/10/28 09:33:35;;;;;;;39.58;20.20;;;;;;;8.73;91.56;100921.66;20740098;28;20589;-70
2021/10/28 10:04:03;;;;;;;40.15;21.00;;;;;;;8.87;90.13;100919.06;20738137;28;20465;-70
2021/10/28 10:14:04;;;;;;;34.83;20.17;;;;;;;9.05;90.54;100912.91;20772487;28;20045;-70
2021/10/28 10:24:12;;;;;;;40.63;21.65;;;;;;;9.15;89.97;100914.66;20818152;28;20099;-70
2021/10/28 14:22:14;;;;;;;43.53;24.15;;;;;;;10.35;84.43;100675.16;20818266;28;20042;-69
2021/10/28 16:25:48;;;;;;;37.50;22.08;;;;;;;8.60;93.12;100598.88;20823381;28;20053;-69
2021/10/28 16:35:49;;;;;;;40.20;21.67;;;;;;;8.28;93.88;100597.22;20827178;28;20045;-69
2021/10/28 16:45:51;;;;;;;44.50;25.17;;;;;;;8.10;94.63;100597.28;20826777;28;20041;-70
2021/10/28 16:55:52;;;;;;;44.33;25.45;;;;;;;7.91;94.75;100597.31;20825657;28;20494;-69
2021/10/28 17:05:54;;;;;;;59.75;37.05;;;;;;;7.67;95.07;100602.56;20825203;28;20057;-69
2021/10/28 17:15:55;;;;;;;58.17;32.25;;;;;;;7.53;94.84;100607.78;20773665;28;20067;-69
2021/10/28 17:25:59;;;;;;;45.63;24.90;;;;;;;7.36;95.05;100615.56;20741407;28;20507;-69
2021/10/28 17:36:03;;;;;;;49.50;25.88;;;;;;;7.25;95.84;100619.03;20737858;28;20077;-69
2021/10/28 17:46:06;;;;;;;56.07;29.27;;;;;;;7.17;95.05;100612.06;20740686;28;20104;-69
2021/10/28 17:56:10;;;;;;;64.68;32.00;;;;;;;7.25;96.89;100612.09;20739079;28;20061;-70
2021/10/28 18:06:11;;;;;;;64.10;30.70;;;;;;;7.18;96.73;100606.00;20738208;28;20052;-69
2021/10/28 18:16:13;;;;;;;67.40;30.80;;;;;;;7.09;96.89;100606.00;20790245;28;20476;-69
2021/10/28 18:26:20;;;;;;;60.90;30.45;;;;;;;6.97;96.54;100592.94;20817982;28;20063;-70
2021/10/28 18:36:22;;;;;;;68.35;33.50;;;;;;;6.86;97.49;100582.53;20815929;28;20092;-69
2021/10/28 18:46:24;;;;;;;69.18;33.10;;;;;;;6.81;97.60;100559.97;20816491;28;20057;-69
2021/10/28 18:56:26;;;;;;;76.35;35.58;;;;;;;6.66;97.48;100551.25;20817883;28;20049;-69
2021/10/28 19:06:29;;;;;;;64.18;30.15;;;;;;;6.51;97.13;100543.38;20815465;28;20056;-69
2021/10/28 19:16:30;;;;;;;60.65;30.95;;;;;;;6.42;97.19;100522.56;20761055;28;20076;-70
2021/10/28 19:26:33;;;;;;;79.70;36.53;;;;;;;6.38;97.69;100510.41;20732095;28;20060;-70
2021/10/28 19:36:56;;;;;;;77.50;36.50;;;;;;;6.34;98.05;100513.88;20730771;28;20053;-69
2021/10/28 19:46:59;;;;;;;89.13;41.78;;;;;;;6.23;97.58;100498.25;20731462;28;20050;-70
2021/10/28 19:57:01;;;;;;;74.05;35.60;;;;;;;6.08;97.64;100495.56;20729881;28;20057;-70
2021/10/28 20:07:14;;;;;;;76.07;36.15;;;;;;;5.90;97.18;100496.34;20729596;28;20057;-70
2021/10/28 20:27:37;;;;;;;105.50;42.55;;;;;;;6.07;98.40;100499.88;20817344;28;20057;-70
2021/10/28 20:37:40;;;;;;;94.18;41.08;;;;;;;6.17;98.85;100506.88;20810101;28;20057;-70
2021/10/28 20:47:42;;;;;;;95.40;42.22;;;;;;;6.19;98.79;100509.50;20811315;28;20049;-70
2021/10/28 20:57:45;;;;;;;103.80;40.67;;;;;;;6.11;99.27;100505.97;20810619;28;20053;-70
2021/10/28 21:07:47;;;;;;;103.25;39.20;;;;;;;6.13;99.28;100493.84;20813790;28;20079;-70
2021/10/28 21:17:49;;;;;;;100.63;40.15;;;;;;;6.06;99.27;100497.28;20760086;28;20050;-70
2021/10/28 21:27:51;;;;;;;98.65;44.13;;;;;;;6.20;99.35;100494.75;20740273;28;20521;-71
2021/10/28 21:38:14;;;;;;;85.93;40.00;;;;;;;6.14;99.54;100495.59;20739419;28;20499;-71
2021/10/28 21:48:18;;;;;;;100.40;38.30;;;;;;;6.01;98.51;100489.47;20739777;28;20135;-70
2021/10/28 21:58:37;;;;;;;117.30;39.03;;;;;;;5.86;98.88;100490.25;20738594;28;20528;-70
2021/10/28 22:29:19;;;;;;;124.53;36.97;;;;;;;5.66;99.09;100461.56;20824549;28;20621;-70
2021/10/28 22:39:46;;;;;;;149.40;40.78;;;;;;;5.76;99.29;100446.91;20824713;28;20042;-79
2021/10/28 22:49:46;;;;;;;113.47;36.60;;;;;;;5.57;100.00;100432.94;20825656;28;20045;-74
2021/10/28 22:59:47;;;;;;;176.60;39.28;;;;;;;5.56;99.18;100427.75;20826567;28;20042;-74
2021/10/28 23:10:20;;;;;;;208.52;41.03;;;;;;;5.49;99.88;100431.16;20825186;28;20053;-74
2021/10/28 23:20:42;;;;;;;88.53;37.38;;;;;;;5.62;99.95;100422.59;20823721;28;20146;-75
2021/10/28 23:30:43;;;;;;;143.18;38.92;;;;;;;5.65;99.83;100427.78;20821991;28;20045;-74
2021/10/28 23:40:44;;;;;;;242.25;40.95;;;;;;;5.55;99.96;100411.28;20821717;28;20100;-75
2021/10/28 23:50:47;;;;;;;84.97;35.58;;;;;;;5.59;99.64;100406.97;20819988;28;20049;-75
